createdAt,value
2023-01-01T00:00:02.064Z,9.15
2023-01-01T00:02:37.472Z,9.27
2023-01-01T00:05:06.086Z,8.50
2023-01-01T00:07:33.236Z,9.25
2023-01-01T00:10:18.662Z,8.13
2023-01-01T00:12:45.694Z,11.00
2023-01-01T00:15:12.795Z,9.45
2023-01-01T00:17:39.842Z,8.55
2023-01-01T00:20:08.036Z,10.10
2023-01-01T00:22:53.948Z,10.55
2023-01-01T00:25:21.894Z,7.90
2023-01-01T00:27:49.483Z,6.78
2023-01-01T00:30:16.737Z,7.68
2023-01-01T00:32:43.908Z,7.20
2023-01-01T00:35:26.305Z,7.88
2023-01-01T00:37:54.569Z,5.03
2023-01-01T00:40:21.700Z,7.28
2023-01-01T00:42:48.795Z,7.25
2023-01-01T00:45:21.018Z,7.38
2023-01-01T00:47:50.803Z,6.40
2023-01-01T00:50:18.095Z,9.10
2023-01-01T00:52:45.372Z,6.68
2023-01-01T00:55:12.672Z,9.60
2023-01-01T00:57:39.974Z,8.35
2023-01-01T01:00:08.402Z,8.10
2023-01-01T01:02:35.883Z,9.20
2023-01-01T01:05:04.845Z,9.15
2023-01-01T01:07:38.767Z,10.48
2023-01-01T01:10:07.287Z,8.93
2023-01-01T01:12:37.325Z,8.98
2023-01-01T01:15:05.906Z,8.15
2023-01-01T01:17:33.663Z,8.05
2023-01-01T01:20:00.644Z,7.18
2023-01-01T01:22:29.197Z,7.18
2023-01-01T01:24:57.421Z,7.35
2023-01-01T01:27:24.801Z,7.63
2023-01-01T01:29:51.997Z,7.78
2023-01-01T01:32:19.289Z,6.53
2023-01-01T01:34:46.827Z,7.82
2023-01-01T01:37:13.839Z,7.72
2023-01-01T01:39:41.047Z,7.47
2023-01-01T01:42:08.375Z,6.25
2023-01-01T01:44:55.450Z,8.13
2023-01-01T01:47:37.460Z,6.88
2023-01-01T01:50:19.366Z,7.47
2023-01-01T01:53:06.157Z,9.07
2023-01-01T01:55:37.838Z,8.70
2023-01-01T01:58:07.713Z,7.95
2023-01-01T02:00:35.031Z,7.65
2023-01-01T02:03:15.046Z,7.57
2023-01-01T02:05:43.111Z,8.27
2023-01-01T02:08:12.253Z,7.28
2023-01-01T02:10:39.529Z,8.52
2023-01-01T02:13:06.804Z,9.07
2023-01-01T02:16:08.551Z,8.30
2023-01-01T02:18:46.547Z,7.07
2023-01-01T02:21:20.135Z,7.57
2023-01-01T02:24:06.691Z,7.45
2023-01-01T02:26:46.779Z,7.97
2023-01-01T02:29:48.054Z,7.07
2023-01-01T02:32:32.666Z,9.95
2023-01-01T02:35:24.356Z,11.80
2023-01-01T02:37:57.232Z,8.70
2023-01-01T02:40:25.920Z,12.10
2023-01-01T02:42:55.050Z,15.77
2023-01-01T02:45:22.518Z,14.77
2023-01-01T02:47:50.321Z,13.00
2023-01-01T02:50:22.468Z,9.70
2023-01-01T02:53:23.827Z,8.73
2023-01-01T02:56:13.595Z,9.55
2023-01-01T02:59:19.249Z,9.77
2023-01-01T03:01:59.245Z,13.20
2023-01-01T03:04:41.724Z,13.40
2023-01-01T03:07:22.384Z,14.82
2023-01-01T03:10:00.205Z,14.38
2023-01-01T03:12:44.048Z,13.13
2023-01-01T03:15:11.125Z,13.10
2023-01-01T03:18:07.820Z,13.57
2023-01-01T03:20:39.551Z,11.18
2023-01-01T03:23:15.448Z,10.30
2023-01-01T03:25:54.639Z,9.38
2023-01-01T03:28:27.513Z,10.15
2023-01-01T03:30:56.664Z,10.05
2023-01-01T03:33:39.742Z,10.45
2023-01-01T03:36:15.547Z,10.93
2023-01-01T03:38:48.370Z,11.30
2023-01-01T03:41:27.632Z,10.60
2023-01-01T03:44:03.305Z,9.90
2023-01-01T03:46:33.344Z,9.98
2023-01-01T03:49:04.280Z,9.57
2023-01-01T03:51:50.244Z,11.35
2023-01-01T03:54:42.541Z,9.50
2023-01-01T03:57:28.447Z,10.05
2023-01-01T04:00:11.360Z,10.07
2023-01-01T04:03:06.526Z,10.00
2023-01-01T04:05:39.063Z,9.98
2023-01-01T04:08:07.321Z,10.35
2023-01-01T04:10:37.626Z,9.88
2023-01-01T04:13:06.447Z,8.93
2023-01-01T04:15:36.158Z,8.73
2023-01-01T04:18:03.680Z,10.50
2023-01-01T04:20:30.697Z,9.20
2023-01-01T04:23:02.614Z,10.48
2023-01-01T04:25:30.028Z,12.55
2023-01-01T04:27:58.506Z,10.35
2023-01-01T04:30:26.883Z,9.88
2023-01-01T04:32:55.062Z,12.60
2023-01-01T04:35:22.240Z,8.93
2023-01-01T04:37:49.340Z,11.43
2023-01-01T04:40:16.484Z,10.68
2023-01-01T04:42:43.652Z,12.15
2023-01-01T04:45:15.117Z,11.88
2023-01-01T04:47:42.785Z,12.27
2023-01-01T04:50:10.072Z,12.75
2023-01-01T04:52:37.307Z,12.38
2023-01-01T04:55:04.942Z,12.18
2023-01-01T04:57:32.201Z,11.30
2023-01-01T04:59:59.227Z,12.32
2023-01-01T05:02:26.893Z,12.27
2023-01-01T05:04:54.261Z,11.20
2023-01-01T05:07:21.400Z,7.40
2023-01-01T05:09:48.622Z,8.55
2023-01-01T05:12:15.813Z,9.05
2023-01-01T05:14:42.899Z,8.50
2023-01-01T05:17:09.939Z,10.43
2023-01-01T05:19:36.986Z,9.75
2023-01-01T05:22:10.200Z,10.68
2023-01-01T05:24:38.061Z,10.00
2023-01-01T05:27:05.785Z,12.30
2023-01-01T05:29:32.748Z,8.95
2023-01-01T05:31:59.923Z,9.48
2023-01-01T05:34:27.526Z,7.97
2023-01-01T05:36:54.851Z,9.95
2023-01-01T05:39:21.941Z,9.40
2023-01-01T05:41:49.345Z,10.15
2023-01-01T05:44:17.401Z,8.75
2023-01-01T05:46:44.779Z,11.20
2023-01-01T05:49:12.771Z,9.18
2023-01-01T05:54:06.046Z,8.45
2023-01-01T05:56:33.169Z,10.35
2023-01-01T05:59:01.793Z,10.10
2023-01-01T06:01:31.023Z,10.73
2023-01-01T06:03:59.823Z,10.50
2023-01-01T06:06:29.857Z,11.27
2023-01-01T06:08:59.415Z,9.65
2023-01-01T06:11:27.817Z,10.55
2023-01-01T06:13:57.557Z,11.23
2023-01-01T06:16:25.350Z,9.93
2023-01-01T06:18:52.533Z,11.77
2023-01-01T06:21:22.116Z,11.60
2023-01-01T06:23:49.894Z,11.18
2023-01-01T06:26:25.536Z,10.95
2023-01-01T06:28:52.789Z,12.75
2023-01-01T06:31:22.007Z,11.05
2023-01-01T06:33:50.924Z,16.83
2023-01-01T06:36:19.913Z,12.63
2023-01-01T06:38:49.618Z,13.73
2023-01-01T06:41:19.783Z,13.23
2023-01-01T06:43:47.501Z,17.88
2023-01-01T06:46:22.019Z,17.25
2023-01-01T06:48:51.205Z,21.70
2023-01-01T06:51:23.808Z,21.95
2023-01-01T06:53:51.624Z,21.30
2023-01-01T06:56:19.422Z,24.15
2023-01-01T06:58:47.266Z,25.00
2023-01-01T07:01:17.735Z,27.67
2023-01-01T07:03:50.291Z,29.63
2023-01-01T07:06:17.454Z,27.92
2023-01-01T07:08:44.645Z,25.35
2023-01-01T07:11:11.668Z,24.50
2023-01-01T07:13:38.967Z,27.75
2023-01-01T07:16:12.340Z,23.23
2023-01-01T07:18:40.664Z,24.33
2023-01-01T07:21:35.209Z,24.52
2023-01-01T07:24:05.125Z,22.92
2023-01-01T07:26:33.459Z,25.55
2023-01-01T07:29:08.575Z,25.48
2023-01-01T07:31:38.045Z,21.13
2023-01-01T07:34:06.377Z,22.92
2023-01-01T07:36:33.651Z,25.85
2023-01-01T07:39:00.791Z,23.85
2023-01-01T07:41:27.977Z,24.77
2023-01-01T07:43:55.079Z,25.23
2023-01-01T07:46:22.259Z,26.17
2023-01-01T07:48:49.481Z,25.48
2023-01-01T07:51:16.784Z,28.00
2023-01-01T07:53:43.896Z,26.92
2023-01-01T07:56:11.086Z,26.85
2023-01-01T07:58:41.366Z,26.45
2023-01-01T08:01:12.069Z,25.55
2023-01-01T08:03:39.322Z,25.02
2023-01-01T08:06:08.800Z,26.38
2023-01-01T08:08:35.875Z,26.95
2023-01-01T08:11:04.127Z,24.05
2023-01-01T08:13:31.605Z,24.83
2023-01-01T08:15:59.359Z,28.38
2023-01-01T08:18:26.435Z,26.27
2023-01-01T08:20:54.353Z,28.00
2023-01-01T08:23:21.351Z,27.63
2023-01-01T08:25:48.414Z,29.40
2023-01-01T08:28:15.690Z,25.67
2023-01-01T08:30:42.701Z,25.20
2023-01-01T08:33:09.681Z,26.35
2023-01-01T08:35:40.355Z,23.83
2023-01-01T08:38:07.339Z,23.27
2023-01-01T08:40:34.449Z,25.45
2023-01-01T08:43:01.386Z,24.10
2023-01-01T08:45:28.443Z,24.55
2023-01-01T08:47:55.569Z,22.23
2023-01-01T08:50:22.669Z,23.48
2023-01-01T08:52:49.924Z,25.13
2023-01-01T08:55:17.060Z,23.98
2023-01-01T08:57:44.051Z,22.85
2023-01-01T09:00:13.667Z,22.05
2023-01-01T09:02:40.709Z,24.15
2023-01-01T09:05:08.371Z,23.63
2023-01-01T09:07:35.380Z,23.90
2023-01-01T09:10:02.539Z,23.45
2023-01-01T09:12:30.136Z,24.50
2023-01-01T09:14:57.120Z,22.17
2023-01-01T09:17:24.127Z,25.42
2023-01-01T09:19:51.166Z,27.55
2023-01-01T09:22:18.310Z,26.23
2023-01-01T09:24:45.432Z,26.30
2023-01-01T09:27:12.509Z,27.67
2023-01-01T09:29:39.504Z,28.73
2023-01-01T09:32:06.568Z,28.73
2023-01-01T09:34:33.575Z,30.42
2023-01-01T09:37:00.541Z,27.63
2023-01-01T09:39:27.727Z,30.55
2023-01-01T09:42:21.841Z,27.95
2023-01-01T09:45:18.422Z,34.33
2023-01-01T09:47:53.496Z,31.30
2023-01-01T09:50:32.157Z,30.60
2023-01-01T09:53:04.296Z,33.80
2023-01-01T09:55:52.998Z,30.35
2023-01-01T09:58:25.303Z,25.92
2023-01-01T10:01:02.951Z,26.55
2023-01-01T10:03:40.839Z,25.15
2023-01-01T10:06:27.365Z,24.83
2023-01-01T10:09:17.330Z,25.48
2023-01-01T10:11:58.945Z,22.23
2023-01-01T10:14:39.342Z,24.20
2023-01-01T10:17:34.968Z,25.33
2023-01-01T10:20:07.809Z,21.67
2023-01-01T10:22:44.329Z,23.80
2023-01-01T10:25:21.453Z,21.17
2023-01-01T10:27:59.210Z,22.85
2023-01-01T10:30:27.737Z,19.90
2023-01-01T10:32:56.138Z,22.77
2023-01-01T10:35:34.186Z,22.67
2023-01-01T10:38:04.203Z,33.78
2023-01-01T10:40:31.697Z,22.20
2023-01-01T10:43:01.005Z,22.25
2023-01-01T10:45:40.402Z,24.02
2023-01-01T10:48:16.814Z,23.13
2023-01-01T10:50:52.343Z,21.58
2023-01-01T10:53:24.108Z,21.60
2023-01-01T10:55:58.795Z,22.05
2023-01-01T10:58:36.983Z,19.30
2023-01-01T11:01:07.908Z,22.45
2023-01-01T11:03:36.136Z,22.20
2023-01-01T11:06:19.913Z,19.67
2023-01-01T11:08:52.945Z,21.50
2023-01-01T11:11:29.260Z,22.50
2023-01-01T11:14:01.420Z,22.38
2023-01-01T11:16:29.913Z,25.33
2023-01-01T11:19:06.091Z,20.80
2023-01-01T11:21:34.939Z,20.50
2023-01-01T11:24:19.243Z,18.38
2023-01-01T11:26:54.609Z,19.70
2023-01-01T11:29:29.910Z,21.52
2023-01-01T11:31:58.550Z,18.02
2023-01-01T11:34:31.806Z,18.60
2023-01-01T11:37:16.202Z,17.65
2023-01-01T11:39:49.375Z,16.70
2023-01-01T11:42:23.783Z,20.77
2023-01-01T11:45:06.247Z,17.58
2023-01-01T11:47:36.377Z,17.23
2023-01-01T11:50:20.267Z,18.30
2023-01-01T11:52:51.962Z,17.25
2023-01-01T11:55:45.894Z,16.60
2023-01-01T11:58:32.441Z,18.88
2023-01-01T12:01:14.278Z,20.88
2023-01-01T12:03:49.368Z,18.65
2023-01-01T12:06:39.046Z,19.65
2023-01-01T12:09:23.567Z,19.20
2023-01-01T12:12:32.027Z,22.00
2023-01-01T12:15:20.275Z,19.55
2023-01-01T12:18:03.842Z,21.88
2023-01-01T12:20:43.827Z,17.73
2023-01-01T12:23:13.389Z,19.55
2023-01-01T12:25:44.099Z,19.65
2023-01-01T12:28:34.116Z,16.50
2023-01-01T12:31:08.036Z,17.58
2023-01-01T12:33:49.667Z,19.30
2023-01-01T12:36:30.520Z,14.32
2023-01-01T12:39:30.922Z,17.52
2023-01-01T12:42:17.527Z,20.35
2023-01-01T12:45:09.612Z,18.00
2023-01-01T12:47:49.459Z,17.20
2023-01-01T12:50:53.592Z,17.52
2023-01-01T12:53:49.743Z,21.35
2023-01-01T12:56:24.234Z,20.45
2023-01-01T12:59:06.673Z,18.35
2023-01-01T13:01:36.309Z,17.67
2023-01-01T13:04:07.962Z,16.42
2023-01-01T13:07:03.731Z,23.63
2023-01-01T13:09:40.137Z,18.80
2023-01-01T13:12:15.722Z,21.40
2023-01-01T13:14:47.715Z,18.33
2023-01-01T13:17:30.232Z,18.33
2023-01-01T13:20:22.486Z,20.83
2023-01-01T13:22:49.546Z,23.80
2023-01-01T13:25:16.531Z,20.00
2023-01-01T13:28:03.545Z,17.30
2023-01-01T13:30:49.734Z,21.67
2023-01-01T13:33:26.704Z,20.05
2023-01-01T13:36:09.691Z,21.65
2023-01-01T13:38:53.340Z,21.40
2023-01-01T13:41:37.186Z,19.98
2023-01-01T13:44:04.391Z,20.20
2023-01-01T13:46:51.955Z,22.23
2023-01-01T13:49:40.694Z,19.75
2023-01-01T13:52:32.654Z,20.27
2023-01-01T13:55:35.335Z,20.20
2023-01-01T13:58:11.256Z,25.25
2023-01-01T14:00:53.702Z,21.08
2023-01-01T14:03:21.707Z,21.63
2023-01-01T14:05:59.522Z,21.92
2023-01-01T14:08:34.768Z,22.77
2023-01-01T14:11:03.960Z,21.92
2023-01-01T14:13:40.488Z,20.48
2023-01-01T14:16:13.750Z,22.58
2023-01-01T14:18:47.511Z,23.80
2023-01-01T14:21:27.422Z,23.60
2023-01-01T14:24:08.762Z,21.85
2023-01-01T14:26:38.862Z,22.23
2023-01-01T14:29:10.798Z,25.17
2023-01-01T14:31:44.763Z,22.65
2023-01-01T14:34:22.398Z,23.70
2023-01-01T14:36:51.982Z,25.55
2023-01-01T14:39:27.983Z,21.17
2023-01-01T14:42:02.516Z,25.17
2023-01-01T14:44:42.486Z,26.60
2023-01-01T14:47:24.793Z,29.10
2023-01-01T14:49:52.360Z,29.02
2023-01-01T14:52:31.488Z,28.05
2023-01-01T14:55:00.394Z,30.05
2023-01-01T14:57:30.994Z,29.75
2023-01-01T14:59:58.422Z,29.20
2023-01-01T15:02:30.685Z,28.25
2023-01-01T15:04:59.118Z,31.08
2023-01-01T15:07:31.410Z,28.17
2023-01-01T15:10:02.390Z,26.58
2023-01-01T15:12:30.732Z,27.70
2023-01-01T15:14:58.307Z,29.10
2023-01-01T15:17:27.295Z,25.02
2023-01-01T15:20:21.515Z,27.73
2023-01-01T15:22:49.466Z,31.52
2023-01-01T15:25:19.809Z,31.10
2023-01-01T15:27:51.921Z,30.05
2023-01-01T15:30:31.991Z,27.65
2023-01-01T15:33:14.520Z,29.48
2023-01-01T15:35:46.556Z,29.52
2023-01-01T15:38:24.165Z,34.78
2023-01-01T15:40:53.892Z,34.30
2023-01-01T15:43:21.111Z,34.90
2023-01-01T15:46:10.767Z,34.20
2023-01-01T15:48:50.424Z,36.08
2023-01-01T15:51:22.719Z,37.13
2023-01-01T15:53:57.338Z,36.13
2023-01-01T15:56:28.145Z,33.92
2023-01-01T15:59:05.357Z,35.50
2023-01-01T16:01:38.563Z,34.90
2023-01-01T16:04:28.038Z,40.55
2023-01-01T16:06:58.502Z,34.40
2023-01-01T16:09:26.139Z,36.67
2023-01-01T16:11:55.505Z,36.90
2023-01-01T16:14:23.279Z,37.17
2023-01-01T16:17:01.009Z,33.28
2023-01-01T16:19:30.801Z,32.30
2023-01-01T16:21:58.144Z,36.20
2023-01-01T16:24:25.293Z,31.08
2023-01-01T16:26:52.572Z,31.02
2023-01-01T16:29:19.578Z,33.70
2023-01-01T16:31:48.155Z,30.60
2023-01-01T16:34:15.557Z,32.75
2023-01-01T16:36:45.495Z,32.90
2023-01-01T16:39:12.739Z,30.83
2023-01-01T16:41:44.141Z,32.78
2023-01-01T16:44:16.522Z,31.08
2023-01-01T16:46:43.885Z,30.67
2023-01-01T16:49:11.263Z,34.58
2023-01-01T16:51:43.252Z,31.25
2023-01-01T16:54:11.307Z,27.15
2023-01-01T16:56:38.455Z,30.55
2023-01-01T16:59:05.471Z,37.53
2023-01-01T17:01:32.816Z,36.80
2023-01-01T17:04:02.439Z,49.63
2023-01-01T17:06:29.410Z,52.65
2023-01-01T17:08:56.384Z,54.60
2023-01-01T17:11:25.069Z,52.83
2023-01-01T17:13:52.453Z,50.67
2023-01-01T17:16:26.494Z,52.22
2023-01-01T17:21:43.432Z,56.00
2023-01-01T17:24:10.566Z,54.80
2023-01-01T17:26:37.577Z,53.55
2023-01-01T17:29:07.241Z,54.95
2023-01-01T17:31:34.801Z,53.55
2023-01-01T17:34:02.161Z,53.20
2023-01-01T17:36:29.275Z,52.42
2023-01-01T17:38:56.547Z,48.50
2023-01-01T17:41:24.269Z,46.83
2023-01-01T17:43:53.209Z,47.90
2023-01-01T17:46:31.089Z,49.55
2023-01-01T17:48:58.640Z,49.28
2023-01-01T17:51:26.726Z,49.58
2023-01-01T17:53:55.327Z,47.08
2023-01-01T17:56:23.827Z,53.42
2023-01-01T17:58:52.872Z,46.60
2023-01-01T18:01:23.481Z,48.60
2023-01-01T18:03:56.088Z,49.25
2023-01-01T18:06:23.621Z,51.25
2023-01-01T18:08:56.565Z,53.50
2023-01-01T18:11:25.407Z,53.47
2023-01-01T18:13:53.030Z,55.72
2023-01-01T18:16:20.200Z,58.72
2023-01-01T18:18:47.614Z,55.38
2023-01-01T18:21:22.296Z,56.58
2023-01-01T18:23:55.132Z,54.97
2023-01-01T18:26:24.379Z,56.47
2023-01-01T18:28:55.766Z,59.08
2023-01-01T18:31:23.441Z,57.30
2023-01-01T18:33:50.864Z,61.75
2023-01-01T18:36:23.596Z,68.18
2023-01-01T18:38:58.584Z,60.20
2023-01-01T18:41:56.084Z,60.65
2023-01-01T18:44:26.831Z,58.40
2023-01-01T18:47:06.026Z,65.32
2023-01-01T18:49:35.462Z,63.70
2023-01-01T18:52:08.281Z,63.13
2023-01-01T18:54:35.969Z,60.60
2023-01-01T18:57:29.333Z,67.65
2023-01-01T19:00:18.911Z,65.82
2023-01-01T19:02:59.074Z,69.72
2023-01-01T19:05:35.725Z,71.00
2023-01-01T19:08:03.287Z,70.00
2023-01-01T19:10:53.948Z,70.45
2023-01-01T19:13:23.862Z,74.95
2023-01-01T19:16:14.487Z,75.55
2023-01-01T19:18:44.499Z,80.20
2023-01-01T19:21:11.493Z,80.88
2023-01-01T19:23:55.215Z,77.45
2023-01-01T19:26:41.573Z,76.00
2023-01-01T19:29:17.194Z,78.07
2023-01-01T19:31:54.504Z,78.53
2023-01-01T19:34:22.527Z,79.85
2023-01-01T19:36:49.931Z,76.15
2023-01-01T19:39:19.357Z,75.65
2023-01-01T19:41:47.009Z,74.97
2023-01-01T19:44:15.538Z,67.78
2023-01-01T19:46:45.798Z,62.13
2023-01-01T19:49:12.857Z,65.65
2023-01-01T19:51:40.075Z,74.50
2023-01-01T19:54:07.320Z,67.07
2023-01-01T19:56:34.325Z,65.57
2023-01-01T19:59:01.478Z,58.80
2023-01-01T20:01:28.477Z,62.65
2023-01-01T20:03:58.589Z,62.83
2023-01-01T20:06:27.012Z,66.82
2023-01-01T20:08:55.202Z,71.13
2023-01-01T20:11:23.200Z,70.53
2023-01-01T20:13:50.765Z,70.72
2023-01-01T20:16:18.021Z,71.30
2023-01-01T20:18:45.944Z,73.00
2023-01-01T20:21:31.859Z,70.10
2023-01-01T20:23:59.405Z,77.75
2023-01-01T20:26:28.225Z,70.75
2023-01-01T20:29:13.762Z,85.25
2023-01-01T20:31:42.093Z,83.72
2023-01-01T20:34:09.929Z,84.10
2023-01-01T20:36:56.017Z,98.18
2023-01-01T20:39:23.832Z,105.10
2023-01-01T20:41:51.588Z,119.55
2023-01-01T20:44:18.946Z,123.88
2023-01-01T20:46:48.188Z,123.88
2023-01-01T20:49:17.240Z,131.63
2023-01-01T20:51:49.440Z,140.10
2023-01-01T20:54:16.693Z,145.23
2023-01-01T20:56:43.997Z,147.98
2023-01-01T20:59:34.113Z,153.38
2023-01-01T21:02:00.096Z,145.02
2023-01-01T21:04:27.476Z,143.70
2023-01-01T21:06:54.577Z,140.43
2023-01-01T21:09:21.670Z,139.70
2023-01-01T21:11:48.755Z,142.02
2023-01-01T21:14:16.202Z,133.90
2023-01-01T21:16:44.649Z,128.70
2023-01-01T21:19:12.625Z,116.00
2023-01-01T21:21:49.703Z,114.63
2023-01-01T21:24:24.067Z,114.13
2023-01-01T21:26:53.643Z,113.90
2023-01-01T21:29:22.398Z,116.78
2023-01-01T21:32:03.969Z,120.80
2023-01-01T21:34:44.658Z,116.72
2023-01-01T21:37:14.304Z,122.60
2023-01-01T21:39:42.349Z,121.50
2023-01-01T21:42:23.958Z,122.03
2023-01-01T21:44:57.592Z,118.05
2023-01-01T21:47:26.187Z,118.40
2023-01-01T21:49:55.909Z,115.18
2023-01-01T21:52:25.004Z,111.70
2023-01-01T21:54:53.435Z,116.55
2023-01-01T21:57:23.569Z,121.85
2023-01-01T21:59:52.321Z,124.55
2023-01-01T22:02:29.029Z,125.22
2023-01-01T22:04:56.456Z,121.65
2023-01-01T22:07:59.078Z,127.32
2023-01-01T22:10:25.523Z,118.90
2023-01-01T22:13:01.073Z,120.70
2023-01-01T22:15:31.362Z,121.22
2023-01-01T22:18:20.522Z,120.53
2023-01-01T22:20:48.130Z,119.07
2023-01-01T22:23:28.287Z,127.03
2023-01-01T22:25:55.446Z,127.03
2023-01-01T22:28:26.825Z,122.03
2023-01-01T22:30:57.616Z,120.38
2023-01-01T22:33:40.486Z,128.30
2023-01-01T22:36:26.341Z,135.70
2023-01-01T22:38:55.712Z,133.38
2023-01-01T22:41:22.827Z,140.80
2023-01-01T22:43:50.552Z,141.57
2023-01-01T22:46:28.206Z,143.35
2023-01-01T22:48:59.705Z,143.00
2023-01-01T22:51:34.318Z,152.35
2023-01-01T22:54:01.279Z,145.30
2023-01-01T22:56:28.586Z,148.32
2023-01-01T22:58:57.602Z,155.77
2023-01-01T23:01:25.219Z,152.85
2023-01-01T23:03:52.960Z,161.45
2023-01-01T23:06:20.293Z,155.80
2023-01-01T23:08:47.472Z,153.43
2023-01-01T23:11:14.794Z,155.32
2023-01-01T23:14:00.380Z,139.55
2023-01-01T23:16:27.570Z,142.38
2023-01-01T23:18:54.600Z,160.48
2023-01-01T23:21:27.010Z,155.30
2023-01-01T23:23:56.155Z,146.63
2023-01-01T23:26:24.885Z,153.40
2023-01-01T23:28:53.327Z,148.45
2023-01-01T23:31:25.361Z,149.93
2023-01-01T23:33:55.035Z,146.73
2023-01-01T23:36:23.649Z,137.02
2023-01-01T23:38:50.669Z,143.18
2023-01-01T23:41:17.982Z,126.20
2023-01-01T23:43:45.194Z,130.15
2023-01-01T23:46:13.796Z,119.63
2023-01-01T23:48:44.020Z,122.15
2023-01-01T23:51:12.338Z,123.35
2023-01-01T23:53:39.527Z,121.32
2023-01-01T23:56:06.783Z,119.95
2023-01-01T23:58:33.823Z,114.00
